Time;durP1;ratioP1;P1;durP2;ratioP2;P2;SDS_P1;SDS_P2;PMS_P1;PMS_P2;Temp;Humidity;BMP_temperature;BMP_pressure;BME280_temperature;BME280_humidity;BME280_pressure;Samples;Min_cycle;Max_cycle;Signal;HPM_P1;HPM_P2
2023/07/06 00:01:41;;;;;;;6.28;3.35;;;14.20;99.90;;;;;;5066227;28;20435;-63
2023/07/06 00:04:06;;;;;;;5.93;3.10;;;14.30;99.90;;;;;;5065219;28;20128;-60
2023/07/06 00:06:32;;;;;;;5.65;3.65;;;14.30;99.90;;;;;;5065853;28;20033;-61
2023/07/06 00:08:59;;;;;;;6.03;3.55;;;14.20;99.90;;;;;;5066348;28;20115;-62
2023/07/06 00:11:27;;;;;;;8.25;3.72;;;14.10;99.90;;;;;;5065909;28;20673;-63
2023/07/06 00:13:52;;;;;;;7.22;3.63;;;14.30;99.90;;;;;;5060015;28;20091;-62
2023/07/06 00:16:21;;;;;;;4.82;3.42;;;14.10;99.90;;;;;;5057789;28;20039;-61
2023/07/06 00:18:47;;;;;;;6.32;3.70;;;14.10;99.90;;;;;;5066214;28;20090;-61
2023/07/06 00:21:12;;;;;;;6.97;3.70;;;14.20;99.90;;;;;;5065608;28;20464;-63
2023/07/06 00:23:43;;;;;;;4.50;3.63;;;14.40;99.90;;;;;;5064729;28;20065;-63
2023/07/06 00:26:12;;;;;;;5.20;3.60;;;14.20;99.90;;;;;;5064712;28;20032;-61
2023/07/06 00:28:37;;;;;;;4.78;3.60;;;14.10;99.90;;;;;;5065068;28;20045;-62
2023/07/06 00:31:20;;;;;;;6.90;3.78;;;14.00;99.90;;;;;;5065802;28;20122;-61
2023/07/06 00:33:46;;;;;;;6.43;3.90;;;14.00;99.90;;;;;;5066350;28;20066;-62
2023/07/06 00:36:12;;;;;;;6.13;3.95;;;13.90;99.90;;;;;;5064155;28;20637;-61
2023/07/06 00:38:38;;;;;;;9.02;4.05;;;14.10;99.90;;;;;;5066039;28;20035;-62
2023/07/06 00:41:03;;;;;;;6.28;3.55;;;13.90;99.90;;;;;;5065662;28;20033;-61
2023/07/06 00:43:54;;;;;;;6.43;4.15;;;14.00;99.90;;;;;;5065773;28;20104;-62
2023/07/06 00:46:22;;;;;;;6.30;3.90;;;14.00;99.90;;;;;;5064429;28;20049;-61
2023/07/06 00:48:50;;;;;;;6.63;4.38;;;14.00;99.90;;;;;;5066552;28;20043;-61
2023/07/06 00:51:34;;;;;;;14.07;4.40;;;13.90;99.90;;;;;;5065330;28;20041;-61
2023/07/06 00:54:08;;;;;;;6.38;4.40;;;14.00;99.90;;;;;;5066066;28;20032;-61
2023/07/06 00:56:40;;;;;;;6.88;4.32;;;13.90;99.90;;;;;;5064916;28;20484;-62
2023/07/06 00:59:09;;;;;;;5.90;3.90;;;13.90;99.90;;;;;;5049282;28;20037;-61
2023/07/06 01:01:37;;;;;;;6.28;3.90;;;13.90;99.90;;;;;;5057655;28;20514;-62
2023/07/06 01:04:05;;;;;;;5.80;4.03;;;13.70;99.90;;;;;;5065495;28;20028;-60
2023/07/06 01:06:46;;;;;;;6.47;4.45;;;13.70;99.90;;;;;;5065199;28;20037;-61
2023/07/06 01:09:12;;;;;;;7.90;4.15;;;13.80;99.90;;;;;;5063035;28;20440;-61
2023/07/06 01:11:41;;;;;;;5.13;4.28;;;13.70;99.90;;;;;;5065909;28;20111;-61
2023/07/06 01:14:12;;;;;;;7.32;4.35;;;13.80;99.90;;;;;;5065567;28;20040;-61
2023/07/06 01:16:59;;;;;;;5.97;4.07;;;13.70;99.90;;;;;;5066314;28;20044;-62
2023/07/06 01:19:56;;;;;;;4.97;3.80;;;13.70;99.90;;;;;;5064411;28;20060;-62
2023/07/06 01:22:56;;;;;;;6.47;4.20;;;13.60;99.90;;;;;;5065403;28;20511;-63
2023/07/06 01:25:40;;;;;;;9.90;4.88;;;13.50;99.90;;;;;;5064810;28;20079;-61
2023/07/06 01:28:45;;;;;;;9.30;4.43;;;13.50;99.90;;;;;;5062984;28;20040;-60
2023/07/06 01:31:24;;;;;;;7.10;4.00;;;13.60;99.90;;;;;;5064053;28;20196;-61
2023/07/06 01:34:17;;;;;;;6.80;4.20;;;13.60;99.90;;;;;;5065652;28;20071;-62
2023/07/06 01:37:07;;;;;;;8.43;4.18;;;13.80;99.90;;;;;;5065268;28;20496;-62
2023/07/06 01:39:32;;;;;;;6.55;4.57;;;13.30;99.90;;;;;;5064637;28;20071;-61
2023/07/06 01:42:16;;;;;;;8.52;4.55;;;13.50;99.90;;;;;;5064755;28;20052;-62
2023/07/06 01:44:46;;;;;;;7.63;4.15;;;13.60;99.90;;;;;;5045666;28;20043;-64
2023/07/06 01:47:18;;;;;;;5.97;4.10;;;13.50;99.90;;;;;;5066095;28;20040;-61
2023/07/06 01:49:45;;;;;;;7.80;4.55;;;13.50;99.90;;;;;;5067557;28;20043;-61
2023/07/06 01:52:33;;;;;;;6.88;4.57;;;13.60;99.90;;;;;;5068129;28;20404;-62
2023/07/06 01:55:20;;;;;;;7.43;4.63;;;13.50;99.90;;;;;;5048636;28;20032;-62
2023/07/06 01:58:04;;;;;;;7.03;4.63;;;13.50;99.90;;;;;;5068565;28;20697;-63
2023/07/06 02:00:31;;;;;;;10.40;4.88;;;13.60;99.90;;;;;;5068134;28;20090;-62
2023/07/06 02:02:59;;;;;;;7.70;4.60;;;13.40;99.90;;;;;;5068889;28;20128;-62
2023/07/06 02:05:25;;;;;;;8.73;4.70;;;13.10;99.90;;;;;;5066854;28;20032;-62
2023/07/06 02:07:51;;;;;;;14.00;4.45;;;13.00;99.90;;;;;;5069155;28;20473;-62
2023/07/06 02:10:19;;;;;;;7.63;4.38;;;13.30;99.90;;;;;;5068381;28;20035;-61
2023/07/06 02:12:47;;;;;;;7.20;4.25;;;13.40;99.90;;;;;;5068350;28;20033;-62
2023/07/06 02:15:18;;;;;;;8.30;4.25;;;13.30;99.90;;;;;;5068053;28;20035;-62
2023/07/06 02:17:47;;;;;;;6.93;4.38;;;13.00;99.90;;;;;;5068894;28;20476;-62
2023/07/06 02:20:15;;;;;;;7.13;4.18;;;13.30;99.90;;;;;;5067660;28;20051;-60
2023/07/06 02:22:42;;;;;;;6.35;4.00;;;13.30;99.90;;;;;;5068612;28;20373;-61
2023/07/06 02:25:08;;;;;;;8.63;4.90;;;13.30;99.90;;;;;;5065892;28;20081;-60
2023/07/06 02:27:34;;;;;;;8.52;4.40;;;13.40;99.90;;;;;;5068083;28;20435;-62
2023/07/06 02:30:00;;;;;;;9.30;4.75;;;13.30;99.90;;;;;;5068462;28;20020;-61
2023/07/06 02:32:27;;;;;;;9.65;4.63;;;13.40;99.90;;;;;;5068002;28;20507;-62
2023/07/06 02:34:53;;;;;;;11.23;4.32;;;13.30;99.90;;;;;;5067717;28;20036;-62
2023/07/06 02:37:18;;;;;;;6.35;4.03;;;13.40;99.90;;;;;;5067081;28;20032;-61
2023/07/06 02:39:44;;;;;;;9.60;4.25;;;13.30;99.90;;;;;;5068040;28;20124;-62
2023/07/06 02:42:14;;;;;;;10.85;4.53;;;13.30;99.90;;;;;;5068018;28;20021;-61
2023/07/06 02:44:40;;;;;;;7.45;4.78;;;13.40;99.90;;;;;;5048143;28;20480;-62
2023/07/06 02:47:06;;;;;;;11.43;4.97;;;13.30;99.90;;;;;;5066681;28;20661;-60
2023/07/06 02:49:32;;;;;;;9.82;5.03;;;13.50;99.90;;;;;;5067552;28;20029;-62
2023/07/06 02:52:00;;;;;;;5.85;4.28;;;13.50;99.90;;;;;;5067876;28;20032;-62
2023/07/06 02:54:26;;;;;;;7.63;4.38;;;13.40;99.90;;;;;;5066949;28;20039;-62
2023/07/06 02:56:52;;;;;;;9.38;5.05;;;13.30;99.90;;;;;;5067185;28;20044;-61
2023/07/06 02:59:17;;;;;;;7.68;4.40;;;13.40;99.90;;;;;;5066779;28;20040;-61
2023/07/06 03:01:43;;;;;;;7.00;4.10;;;13.40;99.90;;;;;;5067679;28;20040;-61
2023/07/06 03:04:11;;;;;;;7.28;4.13;;;13.30;99.90;;;;;;5067149;28;20060;-61
2023/07/06 03:06:38;;;;;;;7.18;4.50;;;13.50;99.90;;;;;;5067023;28;20051;-62
2023/07/06 03:09:05;;;;;;;7.22;4.38;;;13.70;99.90;;;;;;5067080;28;20029;-60
2023/07/06 03:11:34;;;;;;;10.60;4.47;;;13.60;99.90;;;;;;5067091;28;20496;-61
2023/07/06 03:14:02;;;;;;;8.52;4.35;;;13.40;99.90;;;;;;5067994;28;20469;-62
2023/07/06 03:16:28;;;;;;;9.27;4.78;;;13.50;99.90;;;;;;5067519;28;20067;-61
2023/07/06 03:18:53;;;;;;;11.63;4.30;;;13.40;99.90;;;;;;5067404;28;20068;-62
2023/07/06 03:21:20;;;;;;;6.72;4.18;;;13.70;99.90;;;;;;5065935;28;20032;-62
2023/07/06 03:23:47;;;;;;;7.05;4.15;;;13.50;99.90;;;;;;5067590;28;20067;-62
2023/07/06 03:26:13;;;;;;;8.80;4.10;;;13.30;99.90;;;;;;5066739;28;20461;-61
2023/07/06 03:28:40;;;;;;;8.73;4.15;;;13.30;99.90;;;;;;5067713;28;20082;-61
2023/07/06 03:31:07;;;;;;;7.70;4.22;;;13.20;99.90;;;;;;5066764;28;20059;-62
2023/07/06 03:33:32;;;;;;;9.45;3.97;;;13.20;99.90;;;;;;5066278;28;20525;-62
2023/07/06 03:35:58;;;;;;;14.07;4.20;;;13.10;99.90;;;;;;5066588;28;20060;-61
2023/07/06 03:38:29;;;;;;;8.60;3.65;;;13.00;99.90;;;;;;5065837;28;20047;-60
2023/07/06 03:40:55;;;;;;;9.93;4.30;;;13.00;99.90;;;;;;5047663;28;20037;-62
2023/07/06 03:43:21;;;;;;;8.30;3.65;;;13.10;99.90;;;;;;5056352;28;20133;-60
2023/07/06 03:45:48;;;;;;;10.73;3.70;;;13.00;99.90;;;;;;5067456;28;20047;-61
2023/07/06 03:48:16;;;;;;;7.63;3.30;;;13.10;99.90;;;;;;5068054;28;20082;-62
2023/07/06 03:50:43;;;;;;;9.48;3.25;;;12.90;99.90;;;;;;5066465;28;20691;-61
2023/07/06 03:53:09;;;;;;;8.95;3.90;;;13.00;99.90;;;;;;5064798;28;20465;-60
2023/07/06 03:55:35;;;;;;;10.23;3.95;;;13.00;99.90;;;;;;5066477;28;20032;-60
2023/07/06 03:58:01;;;;;;;8.18;3.70;;;13.30;99.90;;;;;;5066960;28;20047;-61
2023/07/06 04:00:28;;;;;;;8.68;3.65;;;13.20;99.90;;;;;;5065997;28;20032;-60
2023/07/06 04:03:00;;;;;;;9.30;4.15;;;13.20;99.90;;;;;;5066770;28;20033;-61
2023/07/06 04:05:37;;;;;;;10.35;4.38;;;13.30;99.90;;;;;;5055092;28;20401;-60
2023/07/06 04:08:07;;;;;;;9.30;3.95;;;13.40;99.90;;;;;;5046291;28;20057;-60
2023/07/06 04:10:34;;;;;;;14.25;4.55;;;13.50;99.90;;;;;;5063718;28;20508;-61
2023/07/06 04:13:00;;;;;;;12.95;3.70;;;13.50;99.90;;;;;;5066311;28;20044;-61
2023/07/06 04:15:26;;;;;;;12.57;4.28;;;13.50;99.90;;;;;;5065816;28;20694;-61
2023/07/06 04:17:52;;;;;;;14.48;4.10;;;13.50;99.90;;;;;;5056476;28;20113;-60
2023/07/06 04:20:29;;;;;;;9.88;3.92;;;13.50;99.90;;;;;;5066480;28;20063;-60
2023/07/06 04:22:57;;;;;;;12.20;4.10;;;13.60;99.90;;;;;;5066398;28;20037;-61
2023/07/06 04:25:29;;;;;;;8.70;4.03;;;13.80;99.90;;;;;;5063989;28;20035;-60
2023/07/06 04:27:55;;;;;;;15.18;4.30;;;13.90;99.90;;;;;;5065345;28;20038;-61
2023/07/06 04:30:21;;;;;;;10.07;4.07;;;13.90;99.90;;;;;;5065912;28;20041;-60
2023/07/06 04:32:51;;;;;;;12.10;4.10;;;13.90;99.90;;;;;;5066187;28;20043;-61
2023/07/06 04:35:21;;;;;;;8.98;3.75;;;14.00;99.90;;;;;;5065465;28;20036;-60
2023/07/06 04:37:48;;;;;;;9.85;3.97;;;14.10;99.90;;;;;;5066127;28;20507;-61
2023/07/06 04:40:17;;;;;;;9.15;3.95;;;14.20;99.90;;;;;;5065878;28;20024;-60
2023/07/06 04:42:46;;;;;;;10.10;3.95;;;14.30;99.90;;;;;;5066286;28;20039;-63
2023/07/06 04:45:13;;;;;;;9.30;4.07;;;14.30;99.90;;;;;;5066345;28;20029;-62
2023/07/06 04:47:39;;;;;;;9.95;3.42;;;14.30;99.90;;;;;;5066805;28;20033;-62
2023/07/06 04:50:07;;;;;;;7.53;3.38;;;14.40;99.90;;;;;;5057279;28;20032;-62
2023/07/06 04:52:33;;;;;;;10.57;4.20;;;14.40;99.90;;;;;;5065989;28;20112;-61
2023/07/06 04:54:59;;;;;;;7.57;3.30;;;14.40;99.90;;;;;;5066046;28;20500;-61
2023/07/06 04:57:26;;;;;;;11.10;3.70;;;14.40;99.90;;;;;;5065349;28;20025;-61
2023/07/06 04:59:52;;;;;;;10.13;3.65;;;14.40;99.90;;;;;;5060373;28;20033;-61
2023/07/06 05:02:17;;;;;;;13.60;3.90;;;14.50;99.90;;;;;;5063772;28;20148;-61
2023/07/06 05:04:43;;;;;;;10.30;3.75;;;14.50;99.90;;;;;;5065538;28;20158;-62
2023/07/06 05:07:12;;;;;;;11.95;3.70;;;14.60;99.90;;;;;;5065459;28;20498;-61
2023/07/06 05:09:40;;;;;;;8.20;3.85;;;14.50;99.90;;;;;;5066013;28;20395;-62
2023/07/06 05:12:07;;;;;;;12.15;3.72;;;14.50;99.90;;;;;;5065418;28;20033;-60
2023/07/06 05:14:34;;;;;;;13.48;3.88;;;14.40;99.90;;;;;;5066011;28;20024;-62
2023/07/06 05:17:00;;;;;;;9.80;4.03;;;14.50;99.90;;;;;;5066543;28;20036;-62
2023/07/06 05:19:27;;;;;;;12.02;3.67;;;14.70;99.90;;;;;;5065521;28;20029;-61
2023/07/06 05:21:55;;;;;;;10.10;3.45;;;14.60;99.90;;;;;;5060776;28;20040;-62
2023/07/06 05:24:21;;;;;;;12.85;3.72;;;14.70;99.90;;;;;;5049481;28;20036;-61
2023/07/06 05:26:47;;;;;;;12.68;3.55;;;14.80;99.90;;;;;;5066171;28;20037;-62
2023/07/06 05:29:12;;;;;;;8.10;3.20;;;14.90;99.90;;;;;;5069360;28;20355;-62
2023/07/06 05:31:38;;;;;;;12.15;3.72;;;14.90;99.90;;;;;;5069294;28;20086;-62
2023/07/06 05:34:03;;;;;;;12.38;4.28;;;15.00;99.90;;;;;;5068424;28;20432;-60
2023/07/06 05:36:29;;;;;;;11.77;3.45;;;15.00;99.90;;;;;;5068351;28;20118;-62
2023/07/06 05:38:55;;;;;;;10.75;3.50;;;15.00;99.90;;;;;;5069399;28;20059;-62
2023/07/06 05:41:20;;;;;;;12.75;3.63;;;15.00;99.90;;;;;;5069188;28;20032;-62
2023/07/06 05:43:46;;;;;;;9.38;3.00;;;15.00;99.90;;;;;;5068545;28;20519;-61
2023/07/06 05:46:11;;;;;;;15.13;3.47;;;15.00;99.90;;;;;;5068503;28;20123;-61
2023/07/06 05:48:37;;;;;;;11.75;3.55;;;15.00;99.90;;;;;;5071184;28;20021;-61
2023/07/06 05:51:03;;;;;;;8.85;3.40;;;14.90;99.90;;;;;;5068626;28;20033;-60
2023/07/06 05:53:29;;;;;;;12.32;3.70;;;15.00;99.90;;;;;;5069619;28;20041;-62
2023/07/06 05:55:54;;;;;;;13.13;3.70;;;15.10;99.90;;;;;;5061448;28;20081;-62
2023/07/06 05:58:20;;;;;;;11.35;3.25;;;15.30;99.90;;;;;;5068633;28;20078;-61
2023/07/06 06:00:45;;;;;;;11.35;3.67;;;15.40;99.90;;;;;;5068730;28;20047;-62
2023/07/06 06:03:11;;;;;;;11.20;3.20;;;15.50;99.90;;;;;;5068499;28;20064;-61
2023/07/06 06:05:39;;;;;;;10.35;3.75;;;15.40;99.90;;;;;;5067907;28;20119;-61
2023/07/06 06:08:05;;;;;;;8.55;3.80;;;15.50;99.90;;;;;;5068733;28;20503;-60
2023/07/06 06:10:33;;;;;;;10.00;3.42;;;15.70;99.90;;;;;;5068718;28;20036;-61
2023/07/06 06:12:58;;;;;;;11.05;3.83;;;15.80;99.90;;;;;;5069008;28;20036;-62
2023/07/06 06:15:24;;;;;;;13.68;3.80;;;15.90;99.90;;;;;;5068869;28;20647;-62
2023/07/06 06:17:50;;;;;;;11.57;3.40;;;15.90;99.90;;;;;;5064818;28;20044;-61
2023/07/06 06:20:16;;;;;;;14.70;3.40;;;15.90;99.90;;;;;;5068166;28;20032;-61
2023/07/06 06:22:41;;;;;;;11.75;3.45;;;15.90;99.90;;;;;;5068527;28;20173;-61
2023/07/06 06:25:07;;;;;;;14.43;3.83;;;16.10;99.90;;;;;;5067703;28;20082;-61
2023/07/06 06:27:33;;;;;;;10.75;3.33;;;16.10;99.90;;;;;;5067683;28;20262;-61
2023/07/06 06:29:59;;;;;;;10.98;3.63;;;16.20;99.90;;;;;;5067054;28;20549;-61
2023/07/06 06:32:25;;;;;;;14.50;4.45;;;16.20;99.90;;;;;;5067576;28;20036;-62
2023/07/06 06:34:51;;;;;;;9.93;3.60;;;16.20;99.90;;;;;;5067907;28;20040;-64
2023/07/06 06:37:17;;;;;;;17.45;4.20;;;16.20;99.90;;;;;;5067899;28;20041;-62
2023/07/06 06:39:43;;;;;;;10.52;3.55;;;16.20;99.90;;;;;;5066983;28;20044;-61
2023/07/06 06:42:09;;;;;;;14.57;4.00;;;16.40;99.90;;;;;;5067736;28;20519;-61
2023/07/06 06:44:35;;;;;;;14.65;4.03;;;16.40;99.90;;;;;;5068149;28;20476;-63
2023/07/06 06:47:04;;;;;;;13.27;3.72;;;16.40;99.90;;;;;;5067842;28;20044;-62
2023/07/06 06:49:30;;;;;;;12.32;3.83;;;16.50;99.90;;;;;;5064496;28;20103;-61
2023/07/06 06:51:55;;;;;;;12.15;3.67;;;16.60;99.90;;;;;;5047952;28;20047;-61
2023/07/06 06:54:21;;;;;;;13.02;4.18;;;16.80;99.90;;;;;;5047598;28;20041;-62
2023/07/06 06:56:47;;;;;;;15.45;4.63;;;16.70;99.90;;;;;;5061284;28;20047;-62
2023/07/06 06:59:13;;;;;;;13.98;4.13;;;16.80;99.90;;;;;;5067442;28;20396;-61
2023/07/06 07:01:40;;;;;;;13.65;3.85;;;16.80;99.90;;;;;;5067071;28;20029;-61
2023/07/06 07:04:09;;;;;;;15.88;4.10;;;16.90;99.90;;;;;;5067475;28;20488;-61
2023/07/06 07:06:35;;;;;;;18.30;4.47;;;17.00;99.90;;;;;;5067021;28;20119;-61
2023/07/06 07:09:02;;;;;;;13.13;4.15;;;17.10;99.90;;;;;;5067536;28;20063;-62
2023/07/06 07:11:28;;;;;;;11.68;4.40;;;17.20;99.90;;;;;;5066519;28;20039;-61
2023/07/06 07:13:54;;;;;;;16.83;4.55;;;17.30;99.90;;;;;;5067527;28;20472;-62
2023/07/06 07:16:21;;;;;;;13.80;4.18;;;17.20;99.90;;;;;;5067942;28;20052;-61
2023/07/06 07:18:46;;;;;;;16.63;4.28;;;17.30;99.90;;;;;;5067270;28;20412;-62
2023/07/06 07:21:14;;;;;;;15.68;4.22;;;17.30;99.90;;;;;;5066164;28;20032;-61
2023/07/06 07:23:47;;;;;;;14.82;4.47;;;17.10;99.90;;;;;;5066533;28;20044;-61
2023/07/06 07:26:19;;;;;;;14.48;4.72;;;17.30;99.90;;;;;;5066579;28;20078;-61
2023/07/06 07:28:48;;;;;;;16.88;4.80;;;17.50;99.90;;;;;;5067002;28;20085;-62
2023/07/06 07:31:15;;;;;;;17.20;5.18;;;;;;;;;;5066868;28;20139;-61
2023/07/06 07:33:44;;;;;;;17.90;4.70;;;17.70;99.90;;;;;;5066369;28;20047;-62
2023/07/06 07:36:10;;;;;;;21.33;5.22;;;17.80;99.90;;;;;;5065596;28;20058;-61
2023/07/06 07:38:37;;;;;;;19.65;5.55;;;18.20;99.90;;;;;;5066722;28;20489;-63
2023/07/06 07:41:06;;;;;;;23.63;5.47;;;18.10;99.90;;;;;;5066761;28;20024;-61
2023/07/06 07:43:41;;;;;;;14.13;5.45;;;18.10;99.90;;;;;;5066994;28;20056;-63
2023/07/06 07:46:09;;;;;;;21.70;6.07;;;18.10;99.90;;;;;;5065516;28;20090;-61
2023/07/06 07:48:39;;;;;;;14.43;4.72;;;18.10;99.90;;;;;;5066889;28;20440;-62
2023/07/06 07:51:07;;;;;;;19.08;5.47;;;18.10;99.90;;;;;;5066290;28;20115;-61
2023/07/06 07:53:37;;;;;;;16.23;5.50;;;18.20;99.90;;;;;;5066686;28;20024;-64
2023/07/06 07:56:06;;;;;;;16.42;4.57;;;18.30;99.90;;;;;;5064258;28;20036;-62
2023/07/06 07:58:36;;;;;;;16.48;4.68;;;18.30;99.90;;;;;;5068275;28;20028;-62
2023/07/06 08:01:05;;;;;;;17.73;4.57;;;18.30;99.90;;;;;;5067791;28;20035;-61
2023/07/06 08:03:32;;;;;;;12.65;4.43;;;18.30;99.90;;;;;;5068405;28;20058;-63
2023/07/06 08:06:02;;;;;;;13.63;4.88;;;18.40;99.90;;;;;;5067970;28;20031;-62
2023/07/06 08:08:29;;;;;;;13.70;4.13;;;18.40;99.90;;;;;;5049684;28;20111;-63
2023/07/06 08:10:59;;;;;;;13.40;4.00;;;18.60;99.90;;;;;;5068381;28;20682;-62
2023/07/06 08:13:25;;;;;;;15.65;4.50;;;18.70;99.90;;;;;;5067577;28;20033;-62
2023/07/06 08:15:50;;;;;;;14.18;4.47;;;18.70;99.90;;;;;;5069305;28;20035;-62
2023/07/06 08:18:16;;;;;;;11.43;3.65;;;18.80;99.90;;;;;;5067285;28;20031;-62
2023/07/06 08:20:47;;;;;;;14.88;3.95;;;18.80;99.90;;;;;;5068119;28;20085;-63
2023/07/06 08:23:13;;;;;;;14.32;4.40;;;18.80;99.90;;;;;;5067535;28;20492;-61
2023/07/06 08:25:42;;;;;;;11.25;3.78;;;18.70;99.90;;;;;;5068426;28;20039;-63
2023/07/06 08:28:12;;;;;;;14.20;3.50;;;18.80;99.90;;;;;;5067732;28;20041;-61
2023/07/06 08:30:40;;;;;;;10.82;3.05;;;18.90;99.90;;;;;;5067992;28;20506;-62
2023/07/06 08:33:09;;;;;;;15.25;3.20;;;19.00;99.90;;;;;;5067594;28;20130;-64
2023/07/06 08:35:39;;;;;;;11.45;3.53;;;19.20;99.90;;;;;;5068216;28;20392;-62
2023/07/06 08:38:05;;;;;;;10.25;3.00;;;19.20;99.90;;;;;;5066804;28;20032;-62
2023/07/06 08:40:31;;;;;;;8.13;3.03;;;19.40;99.90;;;;;;5067319;28;20025;-63
2023/07/06 08:42:59;;;;;;;12.45;3.05;;;19.30;99.90;;;;;;5067551;28;20070;-63
2023/07/06 08:45:41;;;;;;;10.52;3.00;;;19.40;99.90;;;;;;5065847;28;20032;-63
2023/07/06 08:48:13;;;;;;;9.03;2.77;;;19.60;99.90;;;;;;5057674;28;20033;-56
2023/07/06 08:50:42;;;;;;;10.48;3.03;;;21.10;99.90;;;;;;5066987;28;20136;-56
2023/07/06 08:53:14;;;;;;;7.53;2.90;;;19.70;99.90;;;;;;5045401;28;20025;-56
2023/07/06 08:55:44;;;;;;;13.07;3.03;;;19.80;99.90;;;;;;5050993;28;20191;-56
2023/07/06 08:58:17;;;;;;;11.07;3.17;;;19.80;99.90;;;;;;5068783;28;20377;-56
2023/07/06 09:00:42;;;;;;;11.45;4.13;;;19.80;99.90;;;;;;5069000;28;20036;-56
2023/07/06 09:03:10;;;;;;;11.45;3.75;;;19.60;99.90;;;;;;5069662;28;20062;-56
2023/07/06 09:05:40;;;;;;;11.88;3.70;;;19.70;99.90;;;;;;5069812;28;20036;-56
2023/07/06 09:08:08;;;;;;;10.38;3.92;;;19.80;99.90;;;;;;5069440;28;20385;-56
2023/07/06 09:10:34;;;;;;;10.02;3.63;;;19.90;99.90;;;;;;5069342;28;20032;-56
2023/07/06 09:13:36;;;;;;;9.23;3.60;;;19.90;99.90;;;;;;5069254;28;20043;-56
2023/07/06 09:16:03;;;;;;;10.65;3.17;;;19.90;99.90;;;;;;5069661;28;20033;-56
2023/07/06 09:18:29;;;;;;;9.40;3.42;;;19.80;99.90;;;;;;5070006;28;20035;-56
2023/07/06 09:20:58;;;;;;;9.10;3.30;;;19.90;99.90;;;;;;5069402;28;20049;-56
2023/07/06 09:23:24;;;;;;;11.10;3.42;;;19.90;99.90;;;;;;5058903;28;20040;-56
2023/07/06 09:25:50;;;;;;;9.60;3.15;;;20.00;99.90;;;;;;5047881;28;20041;-56
2023/07/06 09:28:23;;;;;;;7.80;3.13;;;20.00;99.90;;;;;;5049061;28;20041;-56
2023/07/06 09:31:04;;;;;;;9.13;3.55;;;20.10;99.90;;;;;;5055220;28;20493;-56
2023/07/06 09:33:31;;;;;;;10.32;3.58;;;20.20;99.90;;;;;;5068563;28;20036;-56
2023/07/06 09:35:57;;;;;;;8.82;2.97;;;20.20;99.90;;;;;;5068817;28;20281;-57
2023/07/06 09:38:24;;;;;;;12.80;3.63;;;20.40;99.90;;;;;;5068554;28;20055;-56
2023/07/06 09:40:50;;;;;;;9.20;3.10;;;20.40;99.90;;;;;;5068411;28;20157;-56
2023/07/06 09:43:21;;;;;;;7.85;3.30;;;20.50;99.90;;;;;;5068558;28;20032;-56
2023/07/06 09:45:49;;;;;;;5.90;3.15;;;20.30;99.90;;;;;;5069567;28;20446;-56
2023/07/06 09:48:36;;;;;;;10.02;3.75;;;20.20;99.90;;;;;;5068559;28;20040;-56
2023/07/06 09:51:12;;;;;;;9.02;3.10;;;20.20;99.90;;;;;;5068565;28;20033;-56
2023/07/06 09:54:05;;;;;;;9.50;3.08;;;20.30;99.90;;;;;;5069153;28;20032;-56
2023/07/06 09:56:30;;;;;;;9.20;3.10;;;20.30;99.90;;;;;;5065180;28;20526;-56
2023/07/06 09:58:58;;;;;;;10.27;3.45;;;20.10;99.90;;;;;;5068786;28;20032;-56
2023/07/06 10:01:42;;;;;;;11.98;3.35;;;20.00;99.90;;;;;;5068510;28;20404;-56
2023/07/06 10:04:19;;;;;;;10.60;3.42;;;20.10;99.90;;;;;;5068548;28;20035;-56
2023/07/06 10:07:09;;;;;;;6.80;2.35;;;20.20;99.90;;;;;;5067074;28;20096;-55
2023/07/06 10:09:39;;;;;;;6.68;3.00;;;20.30;99.90;;;;;;5066252;28;20033;-56
2023/07/06 10:12:40;;;;;;;8.80;2.88;;;20.20;99.90;;;;;;5068173;28;20067;-55
2023/07/06 10:15:17;;;;;;;11.40;2.97;;;20.50;99.90;;;;;;5068834;28;20120;-56
2023/07/06 10:17:50;;;;;;;8.23;3.40;;;20.60;99.90;;;;;;5056427;28;20024;-56
2023/07/06 10:20:23;;;;;;;;;;;20.80;99.90;;;;;;5057863;28;20041;-56
2023/07/06 10:23:14;;;;;;;8.55;2.47;;;20.80;99.90;;;;;;5068632;28;19908;-55
2023/07/06 10:26:08;;;;;;;5.38;2.50;;;20.80;99.90;;;;;;5067946;28;20408;-56
2023/07/06 10:28:38;;;;;;;5.05;2.30;;;20.90;99.90;;;;;;5061373;28;20086;-56
2023/07/06 10:31:08;;;;;;;10.65;2.72;;;20.90;99.90;;;;;;5055508;28;20060;-56
2023/07/06 10:33:41;;;;;;;6.28;2.72;;;20.90;99.90;;;;;;5068354;28;20468;-55
2023/07/06 10:36:12;;;;;;;6.60;2.60;;;21.00;99.90;;;;;;5067390;28;20488;-56
2023/07/06 10:38:37;;;;;;;6.40;2.25;;;20.80;99.90;;;;;;5067678;28;20036;-56
2023/07/06 10:41:09;;;;;;;7.25;2.47;;;20.90;99.90;;;;;;5066969;28;20078;-56
2023/07/06 10:43:38;;;;;;;6.45;2.28;;;21.00;99.90;;;;;;5068129;28;20047;-55
2023/07/06 10:46:31;;;;;;;9.90;2.35;;;21.10;99.90;;;;;;5067371;28;20041;-56
2023/07/06 10:49:12;;;;;;;7.45;2.47;;;21.60;99.90;;;;;;5067942;28;20032;-55
2023/07/06 10:52:00;;;;;;;8.80;2.25;;;21.50;99.90;;;;;;5059528;28;20111;-56
2023/07/06 10:54:30;;;;;;;6.07;2.00;;;21.70;99.90;;;;;;5067503;28;20377;-56
2023/07/06 10:57:10;;;;;;;5.32;1.90;;;21.80;99.90;;;;;;5067370;28;20043;-55
2023/07/06 10:59:44;;;;;;;4.30;1.83;;;21.60;99.90;;;;;;5067428;28;20029;-55
2023/07/06 11:02:21;;;;;;;5.45;1.98;;;21.70;99.90;;;;;;5066528;28;20037;-56
2023/07/06 11:04:58;;;;;;;4.15;1.77;;;21.80;99.90;;;;;;5067264;28;20031;-56
2023/07/06 11:07:36;;;;;;;5.50;2.00;;;21.90;99.90;;;;;;5066770;28;20397;-63
2023/07/06 11:10:14;;;;;;;4.60;1.90;;;22.10;99.90;;;;;;5067146;28;20520;-61
2023/07/06 11:12:57;;;;;;;5.72;2.00;;;22.10;99.90;;;;;;5066730;28;20463;-63
2023/07/06 11:15:52;;;;;;;7.13;2.30;;;22.00;99.90;;;;;;5067381;28;20373;-63
2023/07/06 11:18:34;;;;;;;5.30;1.65;;;22.00;99.90;;;;;;5067241;28;20085;-61
2023/07/06 11:21:26;;;;;;;4.88;1.88;;;22.10;99.90;;;;;;5067052;28;20029;-63
2023/07/06 11:23:56;;;;;;;6.47;2.00;;;22.20;99.90;;;;;;5066493;28;20551;-63
2023/07/06 11:27:01;;;;;;;6.22;1.88;;;22.10;99.90;;;;;;5065050;28;20033;-61
2023/07/06 11:29:29;;;;;;;5.10;1.80;;;22.00;99.90;;;;;;5066536;28;20032;-62
2023/07/06 11:32:09;;;;;;;5.10;2.10;;;22.00;99.90;;;;;;5067071;28;20610;-63
2023/07/06 11:35:02;;;;;;;3.08;1.40;;;21.90;99.90;;;;;;5064126;28;20047;-62
2023/07/06 11:37:50;;;;;;;8.77;1.70;;;22.10;99.90;;;;;;5046474;28;20044;-63
2023/07/06 11:40:45;;;;;;;4.60;1.80;;;22.40;99.90;;;;;;5061774;28;20032;-61
2023/07/06 11:43:35;;;;;;;4.97;1.63;;;22.60;99.90;;;;;;5066761;28;20479;-61
2023/07/06 11:46:34;;;;;;;5.63;2.03;;;22.40;99.90;;;;;;5058635;28;20037;-58
2023/07/06 11:49:12;;;;;;;4.82;1.90;;;22.20;99.90;;;;;;5065372;28;20024;-62
2023/07/06 11:51:38;;;;;;;8.52;1.70;;;22.40;99.90;;;;;;5046368;28;20032;-62
2023/07/06 11:54:07;;;;;;;4.20;1.60;;;22.40;99.90;;;;;;5046220;28;20492;-61
2023/07/06 11:57:13;;;;;;;4.00;1.50;;;22.00;99.90;;;;;;5057099;28;20714;-63
2023/07/06 11:59:40;;;;;;;4.60;2.00;;;22.00;99.90;;;;;;5066090;28;20086;-61
2023/07/06 12:02:14;;;;;;;5.05;1.88;;;22.00;99.90;;;;;;5065989;28;20059;-61
2023/07/06 12:04:40;;;;;;;3.50;1.67;;;22.00;99.90;;;;;;5065757;28;20046;-62
2023/07/06 12:07:32;;;;;;;4.45;1.83;;;22.20;99.90;;;;;;5065182;28;20058;-61
2023/07/06 12:10:06;;;;;;;4.22;1.70;;;22.20;99.90;;;;;;5058896;28;20355;-61
2023/07/06 12:12:33;;;;;;;7.82;1.70;;;22.20;99.90;;;;;;5066028;28;20515;-61
2023/07/06 12:15:01;;;;;;;3.83;1.45;;;22.20;99.90;;;;;;5065817;28;20056;-62
2023/07/06 12:17:30;;;;;;;6.38;2.00;;;22.30;99.90;;;;;;5066393;28;20041;-61
2023/07/06 12:19:57;;;;;;;5.40;1.80;;;22.30;99.90;;;;;;5065168;28;20033;-62
2023/07/06 12:22:24;;;;;;;4.60;1.50;;;22.40;99.90;;;;;;5065478;28;20029;-61
2023/07/06 12:24:55;;;;;;;4.25;1.45;;;22.40;99.90;;;;;;5065833;28;20028;-62
2023/07/06 12:27:21;;;;;;;7.15;1.80;;;22.40;99.90;;;;;;5065511;28;20670;-63
2023/07/06 12:29:47;;;;;;;5.45;1.80;;;22.20;99.90;;;;;;5060637;28;20120;-61
2023/07/06 12:32:19;;;;;;;6.07;1.52;;;22.20;99.90;;;;;;5062045;28;20075;-61
2023/07/06 12:34:51;;;;;;;4.18;1.48;;;22.50;99.90;;;;;;5066202;28;20098;-63
2023/07/06 12:37:19;;;;;;;4.85;1.45;;;22.70;99.90;;;;;;5065802;28;20085;-62
2023/07/06 12:39:47;;;;;;;4.57;1.52;;;22.80;99.90;;;;;;5064530;28;20032;-62
2023/07/06 12:42:16;;;;;;;3.75;1.52;;;22.70;99.90;;;;;;5064508;28;20046;-63
2023/07/06 12:44:43;;;;;;;3.58;1.50;;;23.20;99.90;;;;;;5065168;28;20048;-63
2023/07/06 12:47:33;;;;;;;4.03;1.40;;;21.20;99.90;;;;;;5065338;28;20033;-61
2023/07/06 12:50:08;;;;;;;5.82;1.55;;;23.00;99.90;;;;;;5064079;28;20572;-63
2023/07/06 12:52:34;;;;;;;3.33;1.25;;;23.90;99.90;;;;;;5064882;28;20528;-62
2023/07/06 12:55:02;;;;;;;3.13;1.48;;;22.90;99.90;;;;;;5065239;28;20068;-63
2023/07/06 12:57:30;;;;;;;4.28;1.55;;;22.80;99.90;;;;;;5065408;28;20263;-63
2023/07/06 13:00:09;;;;;;;2.25;1.10;;;22.80;99.90;;;;;;5065801;28;20120;-63
2023/07/06 13:02:38;;;;;;;4.07;1.52;;;22.80;99.90;;;;;;5064766;28;20084;-62